Terminal Aerodrome Forecast
Issued by NWS Charleston, WV

Home | Current Version | Previous Version | Text Only | Print | Product List | Glossary On
Versions: 1 2 3 4 5 6 7 8 9 10 11 12 13 14 15 16 17 18 19 20 21
000
FTUS41 KRLX 261141
TAFPKB
TAF
KPKB 261141Z 2612/2712 00000KT P6SM SCT050
     FM261800 19003KT P6SM -SHRA VCTS OVC070CB
     FM262100 19003KT 5SM SHRA VCTS OVC035CB
     FM270600 00000KT 4SM BR BKN050=

USA.gov is the U.S. government's official web portal to all federal, state and local government web resources and services.